createdAt,value
2018-02-07T00:00:38.662Z,0.00
2018-02-07T00:01:38.685Z,0.00
2018-02-07T00:02:38.672Z,0.00
2018-02-07T00:03:38.721Z,0.00
2018-02-07T00:04:38.678Z,0.00
2018-02-07T00:05:38.686Z,0.00
2018-02-07T00:06:38.686Z,0.00
2018-02-07T00:07:38.695Z,0.00
2018-02-07T00:08:38.692Z,0.00
2018-02-07T00:09:38.714Z,0.00
2018-02-07T00:10:38.713Z,0.00
2018-02-07T00:11:38.712Z,0.00
2018-02-07T00:12:38.714Z,0.00
2018-02-07T00:13:38.714Z,0.00
2018-02-07T00:14:38.720Z,0.00
2018-02-07T00:15:38.725Z,0.00
2018-02-07T00:16:38.725Z,0.00
2018-02-07T00:17:38.734Z,0.00
2018-02-07T00:18:38.738Z,0.00
2018-02-07T00:19:38.735Z,0.00
2018-02-07T00:20:38.749Z,0.00
2018-02-07T00:21:38.748Z,0.00
2018-02-07T00:22:38.745Z,0.00
2018-02-07T00:23:38.750Z,0.00
2018-02-07T00:24:38.784Z,0.00
2018-02-07T00:25:38.900Z,0.00
2018-02-07T00:26:38.774Z,0.00
2018-02-07T00:27:38.770Z,0.00
2018-02-07T00:28:38.774Z,0.00
2018-02-07T00:29:38.782Z,0.00
2018-02-07T00:30:38.781Z,0.00
2018-02-07T00:31:38.786Z,0.00
2018-02-07T00:32:38.791Z,0.00
2018-02-07T00:33:38.794Z,0.00
2018-02-07T00:34:38.799Z,0.00
2018-02-07T00:35:38.796Z,0.00
2018-02-07T00:36:38.807Z,0.00
2018-02-07T00:37:38.806Z,0.00
2018-02-07T00:38:38.810Z,0.00
2018-02-07T00:39:38.809Z,0.00
2018-02-07T00:40:38.814Z,0.00
2018-02-07T00:41:38.819Z,0.00
2018-02-07T00:42:38.825Z,0.00
2018-02-07T00:43:38.825Z,0.00
2018-02-07T00:44:38.830Z,0.00
2018-02-07T00:45:38.838Z,0.00
2018-02-07T00:46:38.838Z,0.00
2018-02-07T00:47:38.844Z,0.00
2018-02-07T00:48:38.843Z,0.00
2018-02-07T00:49:38.847Z,0.00
2018-02-07T00:50:38.855Z,0.00
2018-02-07T00:51:38.857Z,0.00
2018-02-07T00:52:38.863Z,0.00
2018-02-07T00:53:38.871Z,0.00
2018-02-07T00:54:38.868Z,0.00
2018-02-07T00:55:38.867Z,0.00
2018-02-07T00:56:38.872Z,0.00
2018-02-07T00:57:38.880Z,0.00
2018-02-07T00:58:38.883Z,0.00
2018-02-07T00:59:38.894Z,0.00
2018-02-07T01:00:38.892Z,0.00
2018-02-07T01:01:38.889Z,0.00
2018-02-07T01:02:38.898Z,0.00
2018-02-07T01:03:38.895Z,0.00
2018-02-07T01:04:38.901Z,0.00
2018-02-07T01:05:38.909Z,0.00
2018-02-07T01:06:38.905Z,0.00
2018-02-07T01:07:38.914Z,0.00
2018-02-07T01:08:38.916Z,0.00
2018-02-07T01:09:38.925Z,0.00
2018-02-07T01:10:38.919Z,0.00
2018-02-07T01:11:38.927Z,0.00
2018-02-07T01:12:38.926Z,0.00
2018-02-07T01:13:38.929Z,0.00
2018-02-07T01:14:38.935Z,0.00
2018-02-07T01:15:38.936Z,0.00
2018-02-07T01:16:38.944Z,0.00
2018-02-07T01:17:38.943Z,0.00
2018-02-07T01:18:38.980Z,0.00
2018-02-07T01:19:38.954Z,0.00
2018-02-07T01:20:38.952Z,0.00
2018-02-07T01:21:38.961Z,0.00
2018-02-07T01:22:38.963Z,0.00
2018-02-07T01:23:38.968Z,0.00
2018-02-07T01:24:38.965Z,0.00
2018-02-07T01:25:38.968Z,0.00
2018-02-07T01:26:38.972Z,0.00
2018-02-07T01:27:38.986Z,0.00
2018-02-07T01:28:38.983Z,0.00
2018-02-07T01:29:38.985Z,0.00
2018-02-07T01:30:38.988Z,0.00
2018-02-07T01:31:38.993Z,0.00
2018-02-07T01:32:38.993Z,0.00
2018-02-07T01:33:38.997Z,0.00
2018-02-07T01:34:39.005Z,0.00
2018-02-07T01:35:39.004Z,0.00
2018-02-07T01:36:39.013Z,0.00
2018-02-07T01:37:39.013Z,0.00
2018-02-07T01:38:39.020Z,0.00
2018-02-07T01:39:39.017Z,0.00
2018-02-07T01:40:39.027Z,0.00
2018-02-07T01:41:39.031Z,0.00
2018-02-07T01:42:39.034Z,0.00
2018-02-07T01:43:39.032Z,0.00
2018-02-07T01:44:39.042Z,0.00
2018-02-07T01:45:39.039Z,0.00
2018-02-07T01:46:39.044Z,0.00
2018-02-07T01:47:39.046Z,0.00
2018-02-07T01:48:39.056Z,0.00
2018-02-07T01:49:39.059Z,0.00
2018-02-07T01:50:39.057Z,0.00
2018-02-07T01:51:39.062Z,0.00
2018-02-07T01:52:39.067Z,0.00
2018-02-07T01:53:39.073Z,0.00
2018-02-07T01:54:39.117Z,0.00
2018-02-07T01:55:39.077Z,0.00
2018-02-07T01:56:39.085Z,0.00
2018-02-07T01:57:39.083Z,0.00
2018-02-07T01:58:39.091Z,0.00
2018-02-07T01:59:39.089Z,0.00
2018-02-07T02:00:39.100Z,0.00
2018-02-07T02:01:39.103Z,0.00
2018-02-07T02:02:39.099Z,0.00
2018-02-07T02:03:39.104Z,0.00
2018-02-07T02:04:39.106Z,0.00
2018-02-07T02:05:39.113Z,0.00
2018-02-07T02:06:39.120Z,0.00
2018-02-07T02:07:39.123Z,0.00
2018-02-07T02:08:39.122Z,0.00
2018-02-07T02:09:39.131Z,0.00
2018-02-07T02:10:39.130Z,0.00
2018-02-07T02:11:39.138Z,0.00
2018-02-07T02:12:39.138Z,0.00
2018-02-07T02:13:39.141Z,0.00
2018-02-07T02:14:39.144Z,0.00
2018-02-07T02:15:39.155Z,0.00
2018-02-07T02:16:39.159Z,0.00
2018-02-07T02:17:39.158Z,0.00
2018-02-07T02:18:39.164Z,0.00
2018-02-07T02:19:39.161Z,0.00
2018-02-07T02:20:39.171Z,0.00
2018-02-07T02:21:39.176Z,0.00
2018-02-07T02:22:39.179Z,0.00
2018-02-07T02:23:39.182Z,0.00
2018-02-07T02:24:39.180Z,0.00
2018-02-07T02:25:39.190Z,0.00
2018-02-07T02:26:39.193Z,0.00
2018-02-07T02:27:39.195Z,0.00
2018-02-07T02:28:39.201Z,0.00
2018-02-07T02:29:39.204Z,0.00
2018-02-07T02:30:39.203Z,0.00
2018-02-07T02:31:39.212Z,0.00
2018-02-07T02:32:39.220Z,0.00
2018-02-07T02:33:39.219Z,0.00
2018-02-07T02:34:39.216Z,0.00
2018-02-07T02:35:39.226Z,0.00
2018-02-07T02:36:39.230Z,0.00
2018-02-07T02:37:39.234Z,0.00
2018-02-07T02:38:39.237Z,0.00
2018-02-07T02:39:39.235Z,0.00
2018-02-07T02:40:39.239Z,0.00
2018-02-07T02:41:39.244Z,0.00
2018-02-07T02:42:39.254Z,0.00
2018-02-07T02:43:39.249Z,0.00
2018-02-07T02:44:39.260Z,0.00
2018-02-07T02:45:39.258Z,0.00
2018-02-07T02:46:39.261Z,0.00
2018-02-07T02:47:39.269Z,0.00
2018-02-07T02:48:39.275Z,0.00
2018-02-07T02:49:39.272Z,0.00
2018-02-07T02:50:39.277Z,0.00
2018-02-07T02:51:39.282Z,0.00
2018-02-07T02:52:39.284Z,0.00
2018-02-07T02:53:39.286Z,0.00
2018-02-07T02:54:39.302Z,0.00
2018-02-07T02:55:39.298Z,0.00
2018-02-07T02:56:39.297Z,0.00
2018-02-07T02:57:39.301Z,0.00
2018-02-07T02:58:39.306Z,0.00
2018-02-07T02:59:39.314Z,0.00
2018-02-07T03:00:39.314Z,0.00
2018-02-07T03:01:39.322Z,0.00
2018-02-07T03:02:39.325Z,0.00
2018-02-07T03:03:39.328Z,0.00
2018-02-07T03:04:39.332Z,0.00
2018-02-07T03:05:39.330Z,0.00
2018-02-07T03:06:39.335Z,0.00
2018-02-07T03:07:39.344Z,0.00
2018-02-07T03:08:39.341Z,0.00
2018-02-07T03:09:39.351Z,0.00
2018-02-07T03:10:39.349Z,0.00
2018-02-07T03:11:39.358Z,0.00
2018-02-07T03:12:39.356Z,0.00
2018-02-07T03:13:39.360Z,0.00
2018-02-07T03:14:39.368Z,0.00
2018-02-07T03:15:39.374Z,0.00
2018-02-07T03:16:39.376Z,0.00
2018-02-07T03:17:39.375Z,0.00
2018-02-07T03:18:39.379Z,0.00
2018-02-07T03:19:39.382Z,0.00
2018-02-07T03:20:39.393Z,0.00
2018-02-07T03:21:39.389Z,0.00
2018-02-07T03:22:39.398Z,0.00
2018-02-07T03:23:39.402Z,0.00
2018-02-07T03:24:39.400Z,0.00
2018-02-07T03:25:39.406Z,0.00
2018-02-07T03:26:39.413Z,0.00
2018-02-07T03:27:39.411Z,0.00
2018-02-07T03:28:39.419Z,0.00
2018-02-07T03:29:39.424Z,0.00
2018-02-07T03:30:39.426Z,0.00
2018-02-07T03:31:39.425Z,0.00
2018-02-07T03:32:39.430Z,0.00
2018-02-07T03:33:39.439Z,0.00
2018-02-07T03:34:39.434Z,0.00
2018-02-07T03:35:39.440Z,0.00
2018-02-07T03:36:39.449Z,0.00
2018-02-07T03:37:39.451Z,0.00
2018-02-07T03:38:39.457Z,0.00
2018-02-07T03:39:39.453Z,0.00
2018-02-07T03:40:39.457Z,0.00
2018-02-07T03:41:39.467Z,0.00
2018-02-07T03:42:39.472Z,0.00
2018-02-07T03:43:39.469Z,0.00
2018-02-07T03:44:39.478Z,0.00
2018-02-07T03:45:39.477Z,0.00
2018-02-07T03:46:39.478Z,0.00
2018-02-07T03:47:39.484Z,0.00
2018-02-07T03:48:39.493Z,0.00
2018-02-07T03:49:39.497Z,0.00
2018-02-07T03:50:39.499Z,0.00
2018-02-07T03:51:39.503Z,0.00
2018-02-07T03:52:39.501Z,0.00
2018-02-07T03:53:39.514Z,0.00
2018-02-07T03:54:39.513Z,0.00
2018-02-07T03:55:39.519Z,0.00
2018-02-07T03:56:39.523Z,0.00
2018-02-07T03:57:39.526Z,0.00
2018-02-07T03:58:39.528Z,0.00
2018-02-07T03:59:39.532Z,0.00
2018-02-07T04:00:39.531Z,0.00
2018-02-07T04:01:39.534Z,0.00
2018-02-07T04:02:39.536Z,0.00
2018-02-07T04:03:39.544Z,0.00
2018-02-07T04:04:39.550Z,0.00
2018-02-07T04:05:39.554Z,0.00
2018-02-07T04:06:39.558Z,0.00
2018-02-07T04:07:39.555Z,0.00
2018-02-07T04:08:39.558Z,0.00
2018-02-07T04:09:39.563Z,0.00
2018-02-07T04:10:39.569Z,0.00
2018-02-07T04:11:39.568Z,0.00
2018-02-07T04:12:39.579Z,0.00
2018-02-07T04:13:39.586Z,0.00
2018-02-07T04:14:39.586Z,0.00
2018-02-07T04:15:39.584Z,0.00
2018-02-07T04:16:39.587Z,0.00
2018-02-07T04:17:39.596Z,0.00
2018-02-07T04:18:39.601Z,0.00
2018-02-07T04:19:39.603Z,0.00
2018-02-07T04:20:39.601Z,0.00
2018-02-07T04:21:39.605Z,0.00
2018-02-07T04:22:39.613Z,0.00
2018-02-07T04:23:39.612Z,0.00
2018-02-07T04:24:39.620Z,0.00
2018-02-07T04:25:39.619Z,0.00
2018-02-07T04:26:39.622Z,0.00
2018-02-07T04:27:39.626Z,0.00
2018-02-07T04:28:39.634Z,0.00
2018-02-07T04:29:39.638Z,0.00
2018-02-07T04:30:39.636Z,0.00
2018-02-07T04:31:39.640Z,0.00
2018-02-07T04:32:39.648Z,0.00
2018-02-07T04:33:39.652Z,0.00
2018-02-07T04:34:39.649Z,0.00
2018-02-07T04:35:39.652Z,0.00
2018-02-07T04:36:39.657Z,0.00
2018-02-07T04:37:39.659Z,0.00
2018-02-07T04:38:39.667Z,0.00
2018-02-07T04:39:39.673Z,0.00
2018-02-07T04:40:39.670Z,0.00
2018-02-07T04:41:39.674Z,0.00
2018-02-07T04:42:39.683Z,0.00
2018-02-07T04:43:39.687Z,0.00
2018-02-07T04:44:39.689Z,0.00
2018-02-07T04:45:39.692Z,0.00
2018-02-07T04:46:39.699Z,0.00
2018-02-07T04:47:39.699Z,0.00
2018-02-07T04:48:39.705Z,0.00
2018-02-07T04:49:39.703Z,0.00
2018-02-07T04:50:39.711Z,0.00
2018-02-07T04:51:39.712Z,0.00
2018-02-07T04:52:39.719Z,0.00
2018-02-07T04:53:39.720Z,0.00
2018-02-07T04:54:39.724Z,0.00
2018-02-07T04:55:39.725Z,0.00
2018-02-07T04:56:39.724Z,0.00
2018-02-07T04:57:39.732Z,0.00
2018-02-07T04:58:39.736Z,0.00
2018-02-07T04:59:39.735Z,0.00
2018-02-07T05:00:39.744Z,0.00
2018-02-07T05:01:39.745Z,0.00
2018-02-07T05:02:39.753Z,0.00
2018-02-07T05:03:39.752Z,0.00
2018-02-07T05:04:39.758Z,0.00
2018-02-07T05:05:39.757Z,0.00
2018-02-07T05:06:39.755Z,0.00
2018-02-07T05:07:39.759Z,0.00
2018-02-07T05:08:39.768Z,0.00
2018-02-07T05:09:39.771Z,0.00
2018-02-07T05:10:39.768Z,0.00
2018-02-07T05:11:39.771Z,0.00
2018-02-07T05:12:39.779Z,0.00
2018-02-07T05:13:39.783Z,0.00
2018-02-07T05:14:39.778Z,0.00
2018-02-07T05:15:39.788Z,0.00
2018-02-07T05:16:39.792Z,0.00
2018-02-07T05:17:39.790Z,0.00
2018-02-07T05:18:39.796Z,0.00
2018-02-07T05:19:39.799Z,0.00
2018-02-07T05:20:39.803Z,0.00
2018-02-07T05:21:39.801Z,0.00
2018-02-07T05:22:39.804Z,0.00
2018-02-07T05:23:39.805Z,0.00
2018-02-07T05:24:39.814Z,0.00
2018-02-07T05:25:39.818Z,0.00
2018-02-07T05:26:39.819Z,0.00
2018-02-07T05:27:39.822Z,0.00
2018-02-07T05:28:39.827Z,0.00
2018-02-07T05:29:39.828Z,0.00
2018-02-07T05:30:39.826Z,0.00
2018-02-07T05:31:39.835Z,0.00
2018-02-07T05:32:39.839Z,0.00
2018-02-07T05:33:39.834Z,0.00
2018-02-07T05:34:39.839Z,0.00
2018-02-07T05:35:39.847Z,0.00
2018-02-07T05:36:39.851Z,0.00
2018-02-07T05:37:39.847Z,0.00
2018-02-07T05:38:39.857Z,0.00
2018-02-07T05:39:39.858Z,0.00
2018-02-07T05:40:39.856Z,0.00
2018-02-07T05:41:39.864Z,0.00
2018-02-07T05:42:39.859Z,0.00
2018-02-07T05:43:39.868Z,0.00
2018-02-07T05:44:39.867Z,0.00
2018-02-07T05:45:39.876Z,0.00
2018-02-07T05:46:39.872Z,0.00
2018-02-07T05:47:39.879Z,0.00
2018-02-07T05:48:39.878Z,0.00
2018-02-07T05:49:39.888Z,0.00
2018-02-07T05:50:39.885Z,0.00
2018-02-07T05:51:39.898Z,0.00
2018-02-07T05:52:39.890Z,0.00
2018-02-07T05:53:39.893Z,0.00
2018-02-07T05:54:39.901Z,0.00
2018-02-07T05:55:39.898Z,0.00
2018-02-07T05:56:39.905Z,0.00
2018-02-07T05:57:39.908Z,0.00
2018-02-07T05:58:39.914Z,0.00
2018-02-07T05:59:39.909Z,0.00
2018-02-07T06:00:39.917Z,0.00
2018-02-07T06:01:39.923Z,0.00
2018-02-07T06:02:39.922Z,0.00
2018-02-07T06:03:39.919Z,0.00
2018-02-07T06:04:39.928Z,0.00
2018-02-07T06:05:39.931Z,0.00
2018-02-07T06:06:39.927Z,0.00
2018-02-07T06:07:39.934Z,0.00
2018-02-07T06:08:39.937Z,0.00
2018-02-07T06:09:39.935Z,0.00
2018-02-07T06:10:39.942Z,0.00
2018-02-07T06:11:39.939Z,0.00
2018-02-07T06:12:39.949Z,0.00
2018-02-07T06:13:39.946Z,0.00
2018-02-07T06:14:39.952Z,0.00
2018-02-07T06:15:39.951Z,0.00
2018-02-07T06:16:39.954Z,0.00
2018-02-07T06:17:39.966Z,0.00
2018-02-07T06:18:39.957Z,0.00
2018-02-07T06:19:39.967Z,0.00
2018-02-07T06:20:39.970Z,0.00
2018-02-07T06:21:39.973Z,0.00
2018-02-07T06:22:39.976Z,0.00
2018-02-07T06:23:39.972Z,0.00
2018-02-07T06:24:39.975Z,0.00
2018-02-07T06:25:39.985Z,0.00
2018-02-07T06:26:39.985Z,0.00
2018-02-07T06:27:39.991Z,0.00
2018-02-07T06:28:39.991Z,0.00
2018-02-07T06:29:39.988Z,0.00
2018-02-07T06:30:39.991Z,0.00
2018-02-07T06:31:39.993Z,0.00
2018-02-07T06:32:40.003Z,0.00
2018-02-07T06:33:40.007Z,0.00
2018-02-07T06:34:40.006Z,0.00
2018-02-07T06:35:40.005Z,0.00
2018-02-07T06:36:40.016Z,0.00
2018-02-07T06:37:40.011Z,0.00
2018-02-07T06:38:40.013Z,0.00
2018-02-07T06:39:40.015Z,0.00
2018-02-07T06:40:40.024Z,0.00
2018-02-07T06:41:40.025Z,0.00
2018-02-07T06:42:40.029Z,0.00
2018-02-07T06:43:40.035Z,0.00
2018-02-07T06:44:40.029Z,0.00
2018-02-07T06:45:40.032Z,0.00
2018-02-07T06:46:40.054Z,0.00
2018-02-07T06:47:40.038Z,0.00
2018-02-07T06:48:40.043Z,0.00
2018-02-07T06:49:40.048Z,0.00
2018-02-07T06:50:40.049Z,0.00
2018-02-07T06:51:40.064Z,0.00
2018-02-07T06:52:40.058Z,0.00
2018-02-07T06:53:40.054Z,0.00
2018-02-07T06:54:40.056Z,0.00
2018-02-07T06:55:40.064Z,0.00
2018-02-07T06:56:40.076Z,0.00
2018-02-07T06:57:40.069Z,0.00
2018-02-07T06:58:40.066Z,0.00
2018-02-07T06:59:40.067Z,0.00
2018-02-07T07:00:40.076Z,0.00
2018-02-07T07:01:40.073Z,0.00
2018-02-07T07:02:40.080Z,0.00
2018-02-07T07:03:40.080Z,0.00
2018-02-07T07:04:40.092Z,0.00
2018-02-07T07:05:40.088Z,0.00
2018-02-07T07:06:40.088Z,0.00
2018-02-07T07:07:40.088Z,0.00
2018-02-07T07:08:40.096Z,0.00
2018-02-07T07:09:40.093Z,0.00
2018-02-07T07:10:40.100Z,0.00
2018-02-07T07:11:40.101Z,0.00
2018-02-07T07:12:40.105Z,0.00
2018-02-07T07:13:40.109Z,0.00
2018-02-07T07:14:40.111Z,0.00
2018-02-07T07:15:40.114Z,0.00
2018-02-07T07:16:40.116Z,0.00
2018-02-07T07:17:40.120Z,0.00
2018-02-07T07:18:40.116Z,0.00
2018-02-07T07:19:40.124Z,0.00
2018-02-07T07:20:40.123Z,5.63
2018-02-07T07:21:40.125Z,5.63
2018-02-07T07:22:40.135Z,5.63
2018-02-07T07:23:40.131Z,5.63
2018-02-07T07:24:40.139Z,5.63
2018-02-07T07:25:40.142Z,5.63
2018-02-07T07:26:40.142Z,5.63
2018-02-07T07:27:40.145Z,5.63
2018-02-07T07:28:40.151Z,5.63
2018-02-07T07:29:40.145Z,5.63
2018-02-07T07:30:40.147Z,5.63
2018-02-07T07:31:40.152Z,5.63
2018-02-07T07:32:40.152Z,5.63
2018-02-07T07:33:40.156Z,5.63
2018-02-07T07:34:40.165Z,5.63
2018-02-07T07:35:40.167Z,11.25
2018-02-07T07:36:40.175Z,11.25
2018-02-07T07:37:40.167Z,11.25
2018-02-07T07:38:40.169Z,11.25
2018-02-07T07:39:40.176Z,11.25
2018-02-07T07:40:40.180Z,11.25
2018-02-07T07:41:40.176Z,11.25
2018-02-07T07:42:40.179Z,11.25
2018-02-07T07:43:40.184Z,11.25
2018-02-07T07:44:40.191Z,11.25
2018-02-07T07:45:40.188Z,16.88
2018-02-07T07:46:40.202Z,16.88
2018-02-07T07:47:40.198Z,16.88
2018-02-07T07:48:40.202Z,16.88
2018-02-07T07:49:40.200Z,16.88
2018-02-07T07:50:40.204Z,16.88
2018-02-07T07:51:40.208Z,16.88
2018-02-07T07:52:40.216Z,16.88
2018-02-07T07:53:40.209Z,16.88
2018-02-07T07:54:40.211Z,16.88
2018-02-07T07:55:40.217Z,16.88
2018-02-07T07:56:40.222Z,16.88
2018-02-07T07:57:40.221Z,16.88
2018-02-07T07:58:40.233Z,16.88
2018-02-07T07:59:40.230Z,16.88
2018-02-07T08:00:40.232Z,16.88
2018-02-07T08:01:40.236Z,16.88
2018-02-07T08:02:40.237Z,16.88
2018-02-07T08:03:40.239Z,16.88
2018-02-07T08:04:40.245Z,16.88
2018-02-07T08:05:40.240Z,16.88
2018-02-07T08:06:40.241Z,16.88
2018-02-07T08:07:40.246Z,16.88
2018-02-07T08:08:40.247Z,16.88
2018-02-07T08:09:40.252Z,16.88
2018-02-07T08:10:40.253Z,16.88
2018-02-07T08:11:40.262Z,22.50
2018-02-07T08:12:40.260Z,22.50
2018-02-07T08:13:40.262Z,22.50
2018-02-07T08:14:40.270Z,22.50
2018-02-07T08:15:40.270Z,22.50
2018-02-07T08:16:40.270Z,22.50
2018-02-07T08:17:40.279Z,22.50
2018-02-07T08:18:40.281Z,22.50
2018-02-07T08:19:40.277Z,22.50
2018-02-07T08:20:40.287Z,22.50
2018-02-07T08:21:40.285Z,28.13
2018-02-07T08:22:40.292Z,28.13
2018-02-07T08:23:40.295Z,22.50
2018-02-07T08:24:40.293Z,22.50
2018-02-07T08:25:40.295Z,22.50
2018-02-07T08:26:40.303Z,22.50
2018-02-07T08:27:40.301Z,22.50
2018-02-07T08:28:40.310Z,22.50
2018-02-07T08:29:40.307Z,22.50
2018-02-07T08:30:40.316Z,22.50
2018-02-07T08:31:40.313Z,22.50
2018-02-07T08:32:40.317Z,22.50
2018-02-07T08:33:40.318Z,22.50
2018-02-07T08:34:40.330Z,16.88
2018-02-07T08:35:40.325Z,16.88
2018-02-07T08:36:40.334Z,16.88
2018-02-07T08:37:40.332Z,16.88
2018-02-07T08:38:40.333Z,16.88
2018-02-07T08:39:40.342Z,16.88
2018-02-07T08:40:40.341Z,16.88
2018-02-07T08:41:40.346Z,22.50
2018-02-07T08:42:40.346Z,16.88
2018-02-07T08:43:40.351Z,16.88
2018-02-07T08:44:40.358Z,22.50
2018-02-07T08:45:40.355Z,33.75
2018-02-07T08:46:40.357Z,33.75
2018-02-07T08:47:40.362Z,33.75
2018-02-07T08:48:40.364Z,33.75
2018-02-07T08:49:40.366Z,39.38
2018-02-07T08:50:40.373Z,33.75
2018-02-07T08:51:40.381Z,28.13
2018-02-07T08:52:40.382Z,39.38
2018-02-07T08:53:40.386Z,39.38
2018-02-07T08:54:40.407Z,39.38
2018-02-07T08:55:40.383Z,39.38
2018-02-07T08:56:40.391Z,39.38
2018-02-07T08:57:40.389Z,39.38
2018-02-07T08:58:40.398Z,39.38
2018-02-07T08:59:40.396Z,33.75
2018-02-07T09:00:40.398Z,33.75
2018-02-07T09:01:40.409Z,33.75
2018-02-07T09:02:40.408Z,33.75
2018-02-07T09:03:40.407Z,33.75
2018-02-07T09:04:40.415Z,33.75
2018-02-07T09:05:40.416Z,33.75
2018-02-07T09:06:40.414Z,33.75
2018-02-07T09:07:40.424Z,39.38
2018-02-07T09:08:40.423Z,39.38
2018-02-07T09:09:40.429Z,39.38
2018-02-07T09:10:40.425Z,33.75
2018-02-07T09:11:40.428Z,33.75
2018-02-07T09:12:40.433Z,39.38
2018-02-07T09:13:40.434Z,39.38
2018-02-07T09:14:40.437Z,50.63
2018-02-07T09:15:40.445Z,45.00
2018-02-07T09:16:40.445Z,45.00
2018-02-07T09:17:40.449Z,45.00
2018-02-07T09:18:40.450Z,45.00
2018-02-07T09:19:40.452Z,50.63
2018-02-07T09:20:40.457Z,56.25
2018-02-07T09:21:40.464Z,56.25
2018-02-07T09:22:40.483Z,56.25
2018-02-07T09:23:40.466Z,50.63
2018-02-07T09:24:40.503Z,45.00
2018-02-07T09:25:40.473Z,39.38
2018-02-07T09:26:40.482Z,39.38
2018-02-07T09:27:40.486Z,39.38
2018-02-07T09:28:40.484Z,39.38
2018-02-07T09:29:40.486Z,39.38
2018-02-07T09:30:40.495Z,45.00
2018-02-07T09:31:40.497Z,45.00
2018-02-07T09:32:40.506Z,56.25
2018-02-07T09:33:40.504Z,56.25
2018-02-07T09:34:40.509Z,56.25
2018-02-07T09:35:40.530Z,56.25
2018-02-07T09:36:40.519Z,61.88
2018-02-07T09:37:40.515Z,56.25
2018-02-07T09:38:40.524Z,50.63
2018-02-07T09:39:40.524Z,56.25
2018-02-07T09:40:40.533Z,61.88
2018-02-07T09:41:40.537Z,67.50
2018-02-07T09:42:40.532Z,67.50
2018-02-07T09:43:40.541Z,67.50
2018-02-07T09:44:40.540Z,61.88
2018-02-07T09:45:40.551Z,67.50
2018-02-07T09:46:40.553Z,73.13
2018-02-07T09:47:40.558Z,67.50
2018-02-07T09:48:40.557Z,56.25
2018-02-07T09:49:40.566Z,50.63
2018-02-07T09:50:40.569Z,56.25
2018-02-07T09:51:40.586Z,56.25
2018-02-07T09:52:40.582Z,56.25
2018-02-07T09:53:40.580Z,61.88
2018-02-07T09:54:40.583Z,61.88
2018-02-07T09:55:40.582Z,50.63
2018-02-07T09:56:40.592Z,50.63
2018-02-07T09:57:40.596Z,50.63
2018-02-07T09:58:40.593Z,50.63
2018-02-07T09:59:40.603Z,50.63
2018-02-07T10:00:40.602Z,56.25
2018-02-07T10:01:40.615Z,61.88
2018-02-07T10:02:40.615Z,61.88
2018-02-07T10:03:40.619Z,61.88
2018-02-07T10:04:40.618Z,61.88
2018-02-07T10:05:40.623Z,61.88
2018-02-07T10:06:40.625Z,61.88
2018-02-07T10:07:40.628Z,67.50
2018-02-07T10:08:40.652Z,67.50
2018-02-07T10:09:40.645Z,61.88
2018-02-07T10:10:40.646Z,50.63
2018-02-07T10:11:40.644Z,56.25
2018-02-07T10:12:40.670Z,56.25
2018-02-07T10:13:40.692Z,56.25
2018-02-07T10:14:40.654Z,45.00
2018-02-07T10:15:40.664Z,45.00
2018-02-07T10:16:40.665Z,61.88
2018-02-07T10:17:40.667Z,61.88
2018-02-07T10:18:40.678Z,61.88
2018-02-07T10:19:40.677Z,61.88
2018-02-07T10:20:40.681Z,61.88
2018-02-07T10:21:40.688Z,61.88
2018-02-07T10:22:40.735Z,61.88
2018-02-07T10:23:40.693Z,61.88
2018-02-07T10:24:40.702Z,61.88
2018-02-07T10:25:40.705Z,61.88
2018-02-07T10:26:40.706Z,73.13
2018-02-07T10:27:40.717Z,84.38
2018-02-07T10:28:40.710Z,78.75
2018-02-07T10:29:40.723Z,73.13
2018-02-07T10:30:40.722Z,61.88
2018-02-07T10:31:40.730Z,61.88
2018-02-07T10:32:40.731Z,56.25
2018-02-07T10:33:40.731Z,50.63
2018-02-07T10:34:40.736Z,50.63
2018-02-07T10:35:40.736Z,45.00
2018-02-07T10:36:40.740Z,39.38
2018-02-07T10:37:40.750Z,39.38
2018-02-07T10:38:40.751Z,39.38
2018-02-07T10:39:40.749Z,45.00
2018-02-07T10:40:40.755Z,50.63
2018-02-07T10:41:40.763Z,56.25
2018-02-07T10:42:40.767Z,61.88
2018-02-07T10:43:40.772Z,61.88
2018-02-07T10:44:40.774Z,50.63
2018-02-07T10:45:40.779Z,45.00
2018-02-07T10:46:40.784Z,45.00
2018-02-07T10:47:40.786Z,45.00
2018-02-07T10:48:40.784Z,39.38
2018-02-07T10:49:40.792Z,39.38
2018-02-07T10:50:40.798Z,39.38
2018-02-07T10:51:40.803Z,33.75
2018-02-07T10:52:40.811Z,33.75
2018-02-07T10:53:40.811Z,33.75
2018-02-07T10:54:40.815Z,33.75
2018-02-07T10:55:40.813Z,33.75
2018-02-07T10:56:40.818Z,33.75
2018-02-07T10:57:40.823Z,33.75
2018-02-07T10:58:40.824Z,33.75
2018-02-07T10:59:40.828Z,33.75
2018-02-07T11:00:40.833Z,33.75
2018-02-07T11:01:40.842Z,39.38
2018-02-07T11:02:40.846Z,45.00
2018-02-07T11:03:40.844Z,50.63
2018-02-07T11:04:40.848Z,45.00
2018-02-07T11:05:40.861Z,45.00
2018-02-07T11:06:40.856Z,45.00
2018-02-07T11:07:40.864Z,50.63
2018-02-07T11:08:40.868Z,50.63
2018-02-07T11:09:40.869Z,50.63
2018-02-07T11:10:40.872Z,50.63
2018-02-07T11:11:40.879Z,50.63
2018-02-07T11:12:40.886Z,50.63
2018-02-07T11:13:40.886Z,50.63
2018-02-07T11:14:40.887Z,50.63
2018-02-07T11:15:40.898Z,50.63
2018-02-07T11:16:40.901Z,50.63
2018-02-07T11:17:40.900Z,50.63
2018-02-07T11:18:40.906Z,50.63
2018-02-07T11:19:40.916Z,50.63
2018-02-07T11:20:40.918Z,50.63
2018-02-07T11:21:40.921Z,56.25
2018-02-07T11:22:40.929Z,56.25
2018-02-07T11:23:40.931Z,50.63
2018-02-07T11:24:40.932Z,50.63
2018-02-07T11:25:40.936Z,50.63
2018-02-07T11:26:40.940Z,50.63
2018-02-07T11:27:40.948Z,50.63
2018-02-07T11:28:40.949Z,50.63
2018-02-07T11:29:40.956Z,56.25
2018-02-07T11:30:40.963Z,50.63
2018-02-07T11:31:40.963Z,45.00
2018-02-07T11:32:40.972Z,45.00
2018-02-07T11:33:40.977Z,45.00
2018-02-07T11:34:40.975Z,50.63
2018-02-07T11:35:40.987Z,50.63
2018-02-07T11:36:40.991Z,50.63
2018-02-07T11:37:41.004Z,50.63
2018-02-07T11:38:41.004Z,56.25
2018-02-07T11:39:41.005Z,50.63
2018-02-07T11:40:41.012Z,45.00
2018-02-07T11:41:41.014Z,39.38
2018-02-07T11:42:41.020Z,39.38
2018-02-07T11:43:41.018Z,50.63
2018-02-07T11:44:41.028Z,50.63
2018-02-07T11:45:41.031Z,50.63
2018-02-07T11:46:41.031Z,50.63
2018-02-07T11:47:41.037Z,50.63
2018-02-07T11:48:41.047Z,50.63
2018-02-07T11:49:41.047Z,56.25
2018-02-07T11:50:41.060Z,50.63
2018-02-07T11:51:41.061Z,50.63
2018-02-07T11:52:41.062Z,50.63
2018-02-07T11:53:41.066Z,50.63
2018-02-07T11:54:41.072Z,50.63
2018-02-07T11:55:41.076Z,50.63
2018-02-07T11:56:41.080Z,50.63
2018-02-07T11:57:41.087Z,45.00
2018-02-07T11:58:41.094Z,45.00
2018-02-07T11:59:41.100Z,45.00
2018-02-07T12:00:41.103Z,45.00
2018-02-07T12:01:41.106Z,45.00
2018-02-07T12:02:41.119Z,39.38
2018-02-07T12:03:41.114Z,39.38
2018-02-07T12:04:41.149Z,39.38
2018-02-07T12:05:41.125Z,50.63
2018-02-07T12:06:41.134Z,50.63
2018-02-07T12:07:41.134Z,45.00
2018-02-07T12:08:41.146Z,39.38
2018-02-07T12:09:41.150Z,33.75
2018-02-07T12:10:41.149Z,33.75
2018-02-07T12:11:41.155Z,33.75
2018-02-07T12:12:41.161Z,33.75
2018-02-07T12:13:41.165Z,33.75
2018-02-07T12:14:41.168Z,33.75
2018-02-07T12:15:41.181Z,33.75
2018-02-07T12:16:41.183Z,33.75
2018-02-07T12:17:41.189Z,39.38
2018-02-07T12:18:41.190Z,39.38
2018-02-07T12:19:41.197Z,33.75
2018-02-07T12:20:41.204Z,33.75
2018-02-07T12:21:41.203Z,33.75
2018-02-07T12:22:41.206Z,33.75
2018-02-07T12:23:41.212Z,33.75
2018-02-07T12:24:41.220Z,33.75
2018-02-07T12:25:41.227Z,28.13
2018-02-07T12:26:41.233Z,33.75
2018-02-07T12:27:41.234Z,33.75
2018-02-07T12:28:41.233Z,39.38
2018-02-07T12:29:41.245Z,39.38
2018-02-07T12:30:41.248Z,39.38
2018-02-07T12:31:41.253Z,33.75
2018-02-07T12:32:41.255Z,33.75
2018-02-07T12:33:41.262Z,33.75
2018-02-07T12:34:41.264Z,33.75
2018-02-07T12:35:41.261Z,28.13
2018-02-07T12:36:41.267Z,33.75
2018-02-07T12:37:41.275Z,33.75
2018-02-07T12:38:41.279Z,33.75
2018-02-07T12:39:41.281Z,33.75
2018-02-07T12:40:41.285Z,33.75
2018-02-07T12:41:41.288Z,33.75
2018-02-07T12:42:41.287Z,33.75
2018-02-07T12:43:41.290Z,33.75
2018-02-07T12:44:41.295Z,33.75
2018-02-07T12:45:41.303Z,33.75
2018-02-07T12:46:41.306Z,33.75
2018-02-07T12:47:41.305Z,33.75
2018-02-07T12:48:41.308Z,33.75
2018-02-07T12:49:41.318Z,33.75
2018-02-07T12:50:41.316Z,33.75
2018-02-07T12:51:41.325Z,33.75
2018-02-07T12:52:41.329Z,33.75
2018-02-07T12:53:41.336Z,33.75
2018-02-07T12:54:41.331Z,33.75
2018-02-07T12:55:41.339Z,33.75
2018-02-07T12:56:41.338Z,33.75
2018-02-07T12:57:41.348Z,33.75
2018-02-07T12:58:41.345Z,33.75
2018-02-07T12:59:41.349Z,33.75
2018-02-07T13:00:41.356Z,33.75
2018-02-07T13:01:41.356Z,28.13
2018-02-07T13:02:41.360Z,28.13
2018-02-07T13:03:41.365Z,22.50
2018-02-07T13:04:41.367Z,22.50
2018-02-07T13:05:41.376Z,28.13
2018-02-07T13:06:41.378Z,28.13
2018-02-07T13:07:41.384Z,28.13